createdAt,value
2023-01-19T05:06:22.737Z,35.32
2023-01-19T06:21:21.975Z,35.53
2023-01-19T06:22:21.992Z,34.59
2023-01-19T06:23:21.952Z,35.74
2023-01-19T06:24:21.949Z,35.84
2023-01-19T06:25:21.944Z,36.05
2023-01-19T06:29:21.890Z,35.21
2023-01-19T06:30:21.882Z,35.11
2023-01-19T06:31:21.943Z,34.59
2023-01-19T06:34:21.840Z,35.00
2023-01-19T06:35:21.829Z,35.54
2023-01-19T06:36:21.820Z,34.61
2023-01-19T06:37:21.813Z,35.13
2023-01-19T06:38:21.835Z,35.42
2023-01-19T06:39:21.790Z,36.57
2023-01-19T06:40:21.785Z,34.50
2023-01-19T06:41:21.769Z,35.00
2023-01-19T06:42:21.783Z,35.21
2023-01-19T06:43:21.751Z,34.92
2023-01-19T06:44:21.742Z,35.44
2023-01-19T06:45:21.736Z,34.71
2023-01-19T06:46:21.721Z,35.02
2023-01-19T06:47:21.713Z,34.71
2023-01-19T06:48:21.706Z,35.23
2023-01-19T06:49:21.689Z,35.02
2023-01-19T06:50:21.679Z,35.53
2023-01-19T06:51:21.676Z,35.02
2023-01-19T06:52:21.662Z,36.29
2023-01-19T06:53:21.652Z,36.59
2023-01-19T06:54:21.664Z,36.37
2023-01-19T06:55:21.627Z,37.62
2023-01-19T06:56:21.618Z,37.43
2023-01-19T06:57:21.611Z,38.68
2023-01-19T06:58:21.602Z,38.99
2023-01-19T06:59:21.588Z,39.41
2023-01-19T07:00:21.580Z,39.95
2023-01-19T07:01:21.769Z,37.85
2023-01-19T07:02:27.891Z,38.16
2023-01-19T07:03:22.679Z,38.47
2023-01-19T07:04:21.535Z,39.42
2023-01-19T07:05:21.532Z,39.20
2023-01-19T07:06:21.516Z,38.28
2023-01-19T07:07:21.509Z,38.37
2023-01-19T07:08:21.493Z,37.85
2023-01-19T07:09:21.483Z,38.18
2023-01-19T07:10:21.518Z,38.16
2023-01-19T07:11:30.445Z,37.97
2023-01-19T07:12:22.497Z,37.76
2023-01-19T07:13:21.456Z,37.85
2023-01-19T07:14:21.435Z,37.43
2023-01-19T07:15:21.428Z,37.22
2023-01-19T07:16:21.489Z,37.85
2023-01-19T07:17:21.421Z,39.61
2023-01-19T07:18:21.396Z,38.99
2023-01-19T07:19:21.387Z,37.54
2023-01-19T07:20:21.377Z,38.47
2023-01-19T07:21:21.380Z,38.26
2023-01-19T07:22:21.354Z,38.26
2023-01-19T07:23:21.340Z,37.42
2023-01-19T07:24:21.329Z,39.49
2023-01-19T07:25:21.319Z,39.09
2023-01-19T07:26:21.722Z,38.87
2023-01-19T07:27:21.304Z,41.49
2023-01-19T07:28:21.290Z,42.40
2023-01-19T07:29:21.280Z,42.96
2023-01-19T07:30:21.269Z,43.90
2023-01-19T07:31:21.414Z,43.79
2023-01-19T07:32:21.255Z,44.73
2023-01-19T07:33:21.242Z,41.40
2023-01-19T07:34:21.234Z,41.61
2023-01-19T07:35:21.218Z,40.16
2023-01-19T07:36:21.215Z,42.65
2023-01-19T07:37:21.197Z,43.17
2023-01-19T07:38:21.188Z,41.69
2023-01-19T07:39:21.181Z,41.92
2023-01-19T07:40:23.323Z,43.07
2023-01-19T07:41:21.157Z,42.34
2023-01-19T07:42:21.235Z,43.59
2023-01-19T07:43:21.136Z,42.74
2023-01-19T07:44:21.129Z,43.48
2023-01-19T07:45:21.135Z,44.19
2023-01-19T07:46:21.164Z,46.00
2023-01-19T07:47:21.108Z,45.36
2023-01-19T07:48:21.090Z,44.73
2023-01-19T07:49:21.079Z,42.44
2023-01-19T07:50:21.069Z,46.06
2023-01-19T07:51:21.054Z,45.55
2023-01-19T07:52:21.049Z,45.12
2023-01-19T07:53:21.038Z,43.05
2023-01-19T07:54:21.028Z,41.71
2023-01-19T07:55:21.017Z,42.84
2023-01-19T07:56:21.011Z,42.19
2023-01-19T07:57:21.001Z,43.36
2023-01-19T07:58:21.016Z,43.26
2023-01-19T07:59:20.976Z,44.90
2023-01-19T08:00:20.965Z,45.94
2023-01-19T08:01:21.043Z,44.59
2023-01-19T08:02:21.050Z,45.65
2023-01-19T08:03:20.936Z,44.79
2023-01-19T08:04:20.938Z,45.62
2023-01-19T08:05:20.919Z,45.11
2023-01-19T08:06:20.903Z,45.62
2023-01-19T08:07:20.891Z,45.62
2023-01-19T08:08:20.897Z,46.14
2023-01-19T08:09:20.872Z,45.42
2023-01-19T08:10:20.864Z,44.90
2023-01-19T08:11:20.854Z,45.21
2023-01-19T08:12:20.841Z,46.45
2023-01-19T08:13:20.837Z,44.79
2023-01-19T08:14:20.887Z,44.25
2023-01-19T08:15:20.809Z,44.67
2023-01-19T08:16:20.808Z,45.52
2023-01-19T08:17:20.793Z,47.47
2023-01-19T08:18:20.794Z,46.75
2023-01-19T08:19:20.783Z,45.94
2023-01-19T08:20:20.759Z,46.56
2023-01-19T08:21:20.765Z,47.29
2023-01-19T08:22:20.740Z,47.39
2023-01-19T08:23:20.733Z,48.43
2023-01-19T08:24:20.760Z,47.81
2023-01-19T08:25:20.712Z,48.22
2023-01-19T08:26:20.706Z,48.51
2023-01-19T08:27:20.687Z,49.16
2023-01-19T08:28:20.676Z,48.35
2023-01-19T08:29:20.667Z,48.98
2023-01-19T08:30:20.681Z,49.06
2023-01-19T08:31:24.355Z,48.43
2023-01-19T08:32:20.753Z,47.83
2023-01-19T08:33:20.627Z,47.50
2023-01-19T08:34:20.618Z,48.43
2023-01-19T08:35:20.611Z,48.33
2023-01-19T08:36:20.597Z,48.95
2023-01-19T08:37:20.598Z,49.66
2023-01-19T08:38:20.575Z,50.01
2023-01-19T08:39:20.570Z,50.53
2023-01-19T08:40:20.556Z,51.58
2023-01-19T08:41:20.547Z,53.00
2023-01-19T08:42:20.537Z,54.69
2023-01-19T08:43:20.525Z,56.70
2023-01-19T08:44:20.520Z,56.49
2023-01-19T08:45:20.513Z,56.90
2023-01-19T08:46:20.576Z,56.82
2023-01-19T08:47:20.535Z,57.63
2023-01-19T08:48:20.473Z,57.45
2023-01-19T08:49:20.469Z,57.74
2023-01-19T08:50:20.454Z,57.45
2023-01-19T08:51:20.455Z,56.62
2023-01-19T08:52:20.434Z,56.90
2023-01-19T08:53:20.427Z,57.76
2023-01-19T08:54:20.416Z,59.53
2023-01-19T08:55:20.409Z,59.61
2023-01-19T08:56:20.759Z,60.05
2023-01-19T08:57:20.381Z,59.33
2023-01-19T08:58:20.372Z,61.51
2023-01-19T08:59:20.358Z,60.78
2023-01-19T09:00:20.365Z,60.99
2023-01-19T09:01:20.458Z,62.34
2023-01-19T09:02:20.620Z,60.50
2023-01-19T09:03:20.365Z,61.41
2023-01-19T09:04:20.311Z,62.76
2023-01-19T09:05:20.309Z,61.93
2023-01-19T09:06:20.292Z,62.89
2023-01-19T09:07:20.303Z,63.10
2023-01-19T09:08:20.318Z,64.87
2023-01-19T09:09:20.257Z,63.90
2023-01-19T09:10:20.247Z,66.51
2023-01-19T09:11:20.243Z,67.68
2023-01-19T09:12:20.231Z,71.43
2023-01-19T09:13:20.225Z,76.01
2023-01-19T09:14:20.209Z,83.03
2023-01-19T09:15:20.199Z,86.99
2023-01-19T09:16:20.216Z,92.62
2023-01-19T09:17:20.179Z,97.19
2023-01-19T09:18:20.193Z,99.99
2023-01-19T09:19:20.155Z,99.99
2023-01-19T09:20:20.148Z,99.99
2023-01-19T09:21:20.139Z,99.99
2023-01-19T09:22:20.128Z,99.99
2023-01-19T09:23:20.181Z,99.99
2023-01-19T09:24:20.106Z,99.99
2023-01-19T09:25:20.102Z,99.99
2023-01-19T09:26:20.085Z,99.99
2023-01-19T09:27:20.080Z,99.99
2023-01-19T09:28:20.068Z,99.99
2023-01-19T09:29:20.052Z,99.99
2023-01-19T09:30:20.045Z,99.99
2023-01-19T09:31:20.332Z,99.99
2023-01-19T09:32:20.028Z,99.99
2023-01-19T09:33:20.020Z,99.99
2023-01-19T09:34:20.044Z,99.99
2023-01-19T09:35:19.991Z,99.99
2023-01-19T09:36:20.010Z,99.99
2023-01-19T09:37:19.976Z,99.99
2023-01-19T09:38:19.967Z,99.99
2023-01-19T09:39:19.955Z,99.99
2023-01-19T09:40:19.943Z,99.99
2023-01-19T09:41:19.933Z,99.99
2023-01-19T09:42:19.921Z,97.68
2023-01-19T09:43:19.916Z,96.69
2023-01-19T09:44:19.932Z,96.59
2023-01-19T09:45:19.900Z,96.94
2023-01-19T09:46:19.900Z,99.99
2023-01-19T09:47:19.868Z,99.72
2023-01-19T09:48:19.861Z,99.98
2023-01-19T09:49:19.861Z,99.99
2023-01-19T09:50:19.930Z,99.99
2023-01-19T09:51:19.833Z,99.99
2023-01-19T09:52:19.823Z,99.99
2023-01-19T09:53:19.808Z,99.99
2023-01-19T09:54:19.850Z,99.99
2023-01-19T09:55:19.787Z,99.99
2023-01-19T09:56:19.777Z,99.99
2023-01-19T09:57:19.764Z,99.99
2023-01-19T09:58:19.788Z,99.99
2023-01-19T09:59:19.746Z,99.99
2023-01-19T10:00:19.785Z,99.99
2023-01-19T10:01:19.839Z,99.99
2023-01-19T10:02:19.731Z,99.99
2023-01-19T10:03:19.733Z,99.99
2023-01-19T10:04:19.696Z,99.99
2023-01-19T10:05:19.682Z,99.99
2023-01-19T10:06:19.691Z,99.99
2023-01-19T10:07:19.671Z,99.99
2023-01-19T10:08:19.653Z,99.99
2023-01-19T10:09:19.641Z,99.99
2023-01-19T10:10:19.705Z,99.99
2023-01-19T10:11:19.625Z,99.99
2023-01-19T10:12:19.962Z,99.99
2023-01-19T10:13:19.603Z,99.99
2023-01-19T10:14:19.600Z,99.99
2023-01-19T10:15:19.581Z,99.99
2023-01-19T10:16:19.629Z,99.99
2023-01-19T10:17:19.564Z,99.99
2023-01-19T10:18:19.560Z,99.99
2023-01-19T10:19:19.540Z,99.99
2023-01-19T10:20:19.564Z,99.99
2023-01-19T10:21:19.517Z,99.99
2023-01-19T10:22:19.590Z,99.99
2023-01-19T10:23:19.498Z,99.99
2023-01-19T10:24:19.510Z,99.99
2023-01-19T10:25:19.613Z,99.27
2023-01-19T10:26:19.479Z,98.75
2023-01-19T10:27:19.484Z,98.12
2023-01-19T10:28:19.452Z,98.65
2023-01-19T10:29:19.439Z,95.72
2023-01-19T10:30:19.523Z,99.99
2023-01-19T10:31:19.596Z,99.99
2023-01-19T10:32:19.409Z,93.54
2023-01-19T10:33:19.396Z,88.95
2023-01-19T10:34:23.011Z,89.64
2023-01-19T10:35:19.376Z,80.26
2023-01-19T10:36:19.368Z,83.69
2023-01-19T10:37:19.354Z,82.55
2023-01-19T10:38:19.372Z,81.09
2023-01-19T10:39:19.329Z,83.17
2023-01-19T10:40:19.439Z,81.19
2023-01-19T10:41:19.308Z,78.03
2023-01-19T10:42:19.300Z,78.07
2023-01-19T10:43:19.289Z,80.46
2023-01-19T10:44:19.289Z,80.22
2023-01-19T10:45:19.314Z,79.52
2023-01-19T10:46:19.309Z,76.61
2023-01-19T10:47:19.283Z,78.80
2023-01-19T10:48:19.242Z,80.63
2023-01-19T10:49:19.236Z,83.48
2023-01-19T10:50:19.346Z,87.96
2023-01-19T10:51:19.247Z,91.72
2023-01-19T10:52:19.196Z,92.66
2023-01-19T10:53:19.201Z,97.60
2023-01-19T10:54:19.210Z,99.99
2023-01-19T10:55:19.197Z,99.99
2023-01-19T10:56:19.190Z,99.99
2023-01-19T10:57:19.205Z,99.99
2023-01-19T10:58:19.134Z,99.99
2023-01-19T10:59:19.118Z,99.99
2023-01-19T11:00:19.168Z,99.99
2023-01-19T11:01:19.257Z,99.99
2023-01-19T11:02:19.338Z,99.99
2023-01-19T11:03:19.160Z,99.99
2023-01-19T11:04:19.106Z,99.99
2023-01-19T11:05:19.062Z,99.99
2023-01-19T11:06:19.053Z,99.99
2023-01-19T11:07:19.040Z,99.99
2023-01-19T11:08:19.072Z,99.99
2023-01-19T11:09:19.017Z,99.99
2023-01-19T11:10:19.043Z,99.99
2023-01-19T11:11:18.997Z,99.99
2023-01-19T11:12:18.988Z,99.99
2023-01-19T11:13:18.972Z,99.99
2023-01-19T11:14:18.977Z,99.99
2023-01-19T11:15:18.955Z,99.99
2023-01-19T11:16:18.965Z,99.99
2023-01-19T11:17:18.929Z,99.99
2023-01-19T11:18:18.919Z,99.99
2023-01-19T11:19:18.912Z,99.99
2023-01-19T11:20:18.898Z,99.99
2023-01-19T11:21:18.893Z,99.99
2023-01-19T11:22:18.883Z,99.99
2023-01-19T11:23:18.870Z,99.99
2023-01-19T11:24:18.879Z,99.99
2023-01-19T11:25:18.848Z,99.99
2023-01-19T11:26:18.885Z,99.99
2023-01-19T11:27:18.827Z,99.99
2023-01-19T11:28:18.819Z,99.99
2023-01-19T11:29:18.808Z,99.99
2023-01-19T11:30:18.802Z,99.99
2023-01-19T11:31:19.017Z,99.99
2023-01-19T11:32:18.775Z,99.99
2023-01-19T11:33:18.766Z,99.99
2023-01-19T11:34:18.757Z,99.99
2023-01-19T11:35:18.743Z,99.99
2023-01-19T11:36:18.748Z,99.99
2023-01-19T11:37:18.731Z,99.99
2023-01-19T11:38:18.710Z,99.99
2023-01-19T11:39:18.702Z,99.99
2023-01-19T11:40:18.750Z,99.99
2023-01-19T11:41:18.715Z,99.99
2023-01-19T11:42:18.704Z,99.99
2023-01-19T11:43:18.664Z,98.51
2023-01-19T11:44:18.649Z,98.62
2023-01-19T11:45:18.653Z,93.75
2023-01-19T11:46:18.638Z,91.76
2023-01-19T11:47:18.628Z,95.21
2023-01-19T11:48:18.612Z,95.94
2023-01-19T11:49:18.605Z,95.80
2023-01-19T11:50:18.594Z,98.82
2023-01-19T11:51:18.595Z,99.50
2023-01-19T11:52:18.575Z,99.99
2023-01-19T11:53:18.560Z,99.99
2023-01-19T11:54:18.580Z,99.99
2023-01-19T11:55:18.549Z,99.99
2023-01-19T11:56:18.533Z,99.99
2023-01-19T11:57:18.521Z,99.99
2023-01-19T11:58:18.575Z,99.99
2023-01-19T11:59:18.503Z,99.99
2023-01-19T12:00:18.505Z,99.99
2023-01-19T12:01:18.497Z,99.99
2023-01-19T12:02:18.509Z,99.99
2023-01-19T12:03:18.542Z,99.99
2023-01-19T12:04:18.455Z,99.99
2023-01-19T12:05:18.440Z,99.99
2023-01-19T12:06:18.432Z,99.99
2023-01-19T12:07:18.447Z,99.99
2023-01-19T12:08:18.411Z,99.99
2023-01-19T12:09:18.397Z,99.99
2023-01-19T12:10:18.387Z,99.99
2023-01-19T12:11:18.377Z,99.99
2023-01-19T12:12:18.366Z,99.99
2023-01-19T12:13:18.357Z,99.99
2023-01-19T12:14:18.375Z,99.99
2023-01-19T12:15:18.359Z,99.99
2023-01-19T12:16:18.445Z,99.99
2023-01-19T12:17:18.320Z,99.99
2023-01-19T12:18:18.421Z,99.99
2023-01-19T12:19:18.314Z,99.99
2023-01-19T12:20:18.287Z,99.99
2023-01-19T12:21:18.274Z,99.99
2023-01-19T12:22:18.279Z,99.99
2023-01-19T12:23:18.252Z,99.99
2023-01-19T12:24:18.327Z,99.99
2023-01-19T12:25:18.245Z,99.99
2023-01-19T12:26:18.221Z,99.99
2023-01-19T12:27:18.218Z,99.99
2023-01-19T12:28:18.199Z,99.55
2023-01-19T12:29:18.189Z,96.85
2023-01-19T12:30:18.206Z,93.93
2023-01-19T12:31:18.393Z,87.57
2023-01-19T12:32:18.175Z,92.43
2023-01-19T12:33:18.149Z,86.70
2023-01-19T12:34:18.134Z,85.35
2023-01-19T12:35:18.128Z,81.87
2023-01-19T12:36:18.185Z,91.45
2023-01-19T12:37:18.105Z,91.14
2023-01-19T12:38:18.098Z,84.69
2023-01-19T12:39:18.088Z,90.20
2023-01-19T12:40:18.092Z,85.69
2023-01-19T12:41:18.067Z,86.31
2023-01-19T12:42:20.456Z,85.52
2023-01-19T12:43:18.045Z,78.03
2023-01-19T12:44:18.033Z,88.85
2023-01-19T12:45:18.028Z,87.87
2023-01-19T12:46:18.105Z,92.82
2023-01-19T12:47:18.007Z,76.74
2023-01-19T12:48:18.013Z,82.15
2023-01-19T12:49:17.989Z,73.62
2023-01-19T12:50:17.993Z,76.33
2023-01-19T12:51:17.964Z,74.24
2023-01-19T12:52:17.951Z,74.04
2023-01-19T12:53:17.950Z,82.63
2023-01-19T12:54:19.904Z,77.61
2023-01-19T12:55:17.921Z,75.56
2023-01-19T12:56:17.966Z,69.57
2023-01-19T12:57:17.899Z,83.78
2023-01-19T12:58:17.894Z,73.90
2023-01-19T12:59:17.881Z,65.38
2023-01-19T13:00:19.847Z,65.45
2023-01-19T13:01:17.948Z,65.45
2023-01-19T13:02:17.994Z,63.79
2023-01-19T13:03:17.838Z,62.75
2023-01-19T13:04:17.828Z,65.00
2023-01-19T13:05:17.818Z,67.22
2023-01-19T13:06:17.805Z,65.76
2023-01-19T13:07:17.801Z,66.35
2023-01-19T13:08:17.790Z,65.21
2023-01-19T13:09:17.775Z,62.72
2023-01-19T13:10:17.768Z,61.50
2023-01-19T13:11:17.757Z,59.71
2023-01-19T13:12:17.747Z,62.41
2023-01-19T13:13:17.741Z,60.75
2023-01-19T13:14:17.727Z,59.82
2023-01-19T13:15:17.713Z,59.50
2023-01-19T13:16:17.770Z,61.99
2023-01-19T13:17:17.693Z,63.76
2023-01-19T13:18:17.714Z,60.13
2023-01-19T13:19:17.691Z,59.71
2023-01-19T13:20:17.675Z,59.92
2023-01-19T13:21:17.654Z,60.85
2023-01-19T13:22:17.646Z,60.23
2023-01-19T13:23:17.639Z,60.85
2023-01-19T13:24:17.636Z,60.88
2023-01-19T13:25:17.614Z,61.58
2023-01-19T13:26:17.638Z,62.93
2023-01-19T13:27:17.590Z,60.72
2023-01-19T13:28:17.584Z,61.65
2023-01-19T13:29:17.580Z,61.13
2023-01-19T13:30:17.718Z,59.29
2023-01-19T13:31:17.696Z,61.48
2023-01-19T13:32:17.561Z,59.68
2023-01-19T13:33:17.533Z,57.61
2023-01-19T13:34:17.547Z,57.61
2023-01-19T13:35:17.517Z,59.99
2023-01-19T13:36:17.497Z,61.68
2023-01-19T13:37:17.489Z,62.38
2023-01-19T13:38:17.477Z,60.85
2023-01-19T13:39:18.635Z,55.84
2023-01-19T13:40:17.460Z,58.12
2023-01-19T13:41:17.451Z,57.61
2023-01-19T13:42:17.437Z,57.48
2023-01-19T13:43:17.431Z,57.17
2023-01-19T13:44:17.419Z,57.17
2023-01-19T13:45:17.410Z,55.92
2023-01-19T13:46:17.443Z,58.38
2023-01-19T13:47:17.390Z,56.44
2023-01-19T13:48:17.377Z,55.06
2023-01-19T13:49:17.367Z,51.64
2023-01-19T13:50:17.416Z,53.10
2023-01-19T13:51:17.353Z,53.61
2023-01-19T13:52:17.338Z,57.86
2023-01-19T13:53:17.326Z,54.13
2023-01-19T13:54:17.356Z,54.02
2023-01-19T13:55:17.338Z,53.10
2023-01-19T13:56:17.296Z,55.27
2023-01-19T13:57:17.311Z,54.73
2023-01-19T13:58:17.277Z,54.10
2023-01-19T13:59:17.290Z,52.06
2023-01-19T14:00:17.252Z,55.79
2023-01-19T14:01:17.717Z,52.81
2023-01-19T14:02:17.277Z,53.64
2023-01-19T14:03:17.289Z,53.54
2023-01-19T14:04:17.213Z,54.26
2023-01-19T14:05:17.204Z,55.16
2023-01-19T14:06:17.338Z,55.48
2023-01-19T14:07:17.233Z,53.50
2023-01-19T14:08:17.169Z,55.30
2023-01-19T14:09:17.177Z,56.13
2023-01-19T14:10:17.155Z,54.78
2023-01-19T14:11:17.143Z,56.13
2023-01-19T14:12:17.201Z,54.05
2023-01-19T14:13:17.124Z,52.91
2023-01-19T14:14:17.112Z,52.60
2023-01-19T14:15:17.099Z,53.50
2023-01-19T14:16:17.175Z,52.16
2023-01-19T14:17:17.079Z,53.71
2023-01-19T14:18:17.083Z,54.78
2023-01-19T14:19:17.060Z,54.33
2023-01-19T14:20:17.052Z,59.42
2023-01-19T14:21:17.036Z,59.76
2023-01-19T14:22:17.061Z,58.38
2023-01-19T14:23:17.018Z,56.72
2023-01-19T14:24:17.167Z,55.20
2023-01-19T14:25:17.023Z,52.58
2023-01-19T14:26:17.015Z,50.50
2023-01-19T14:27:17.002Z,52.16
2023-01-19T14:28:16.985Z,52.06
2023-01-19T14:29:16.997Z,52.50
2023-01-19T14:30:16.948Z,48.84
2023-01-19T14:31:17.003Z,51.98
2023-01-19T14:32:16.933Z,55.40
2023-01-19T14:33:16.911Z,52.60
2023-01-19T14:34:16.904Z,52.72
2023-01-19T14:35:16.892Z,51.98
2023-01-19T14:36:17.987Z,53.02
2023-01-19T14:37:16.883Z,52.29
2023-01-19T14:38:16.931Z,51.77
2023-01-19T14:39:16.850Z,52.41
2023-01-19T14:40:16.844Z,50.42
2023-01-19T14:41:16.847Z,51.17
2023-01-19T14:42:17.599Z,49.51
2023-01-19T14:43:16.812Z,49.71
2023-01-19T14:44:16.797Z,49.92
2023-01-19T14:45:16.793Z,51.48
2023-01-19T14:46:16.835Z,51.06
2023-01-19T14:47:16.771Z,50.96
2023-01-19T14:48:18.064Z,50.65
2023-01-19T14:49:16.754Z,51.37
2023-01-19T14:50:16.739Z,50.11
2023-01-19T14:51:16.727Z,51.17
2023-01-19T14:52:16.721Z,51.58
2023-01-19T14:53:16.708Z,52.31
2023-01-19T14:54:16.722Z,50.54
2023-01-19T14:55:16.693Z,49.95
2023-01-19T14:56:16.675Z,51.89
2023-01-19T14:57:16.669Z,52.10
2023-01-19T14:58:16.652Z,54.39
2023-01-19T14:59:16.645Z,53.66
2023-01-19T15:00:17.465Z,52.41
2023-01-19T15:01:16.715Z,52.31
2023-01-19T15:02:16.643Z,54.18
2023-01-19T15:03:16.609Z,51.48
2023-01-19T15:04:16.597Z,53.87
2023-01-19T15:05:16.585Z,53.14
2023-01-19T15:06:16.585Z,55.84
2023-01-19T15:07:16.562Z,56.88
2023-01-19T15:08:16.558Z,54.39
2023-01-19T15:09:16.553Z,52.93
2023-01-19T15:10:16.558Z,51.69
2023-01-19T15:11:16.536Z,49.82
2023-01-19T15:12:17.461Z,53.35
2023-01-19T15:13:16.506Z,53.97
2023-01-19T15:14:16.493Z,55.63
2023-01-19T15:15:16.500Z,54.39
2023-01-19T15:16:16.514Z,52.93
2023-01-19T15:17:16.463Z,54.31
2023-01-19T15:18:16.454Z,55.56
2023-01-19T15:19:16.451Z,54.39
2023-01-19T15:20:16.435Z,52.00
2023-01-19T15:21:16.425Z,52.75
2023-01-19T15:22:16.411Z,50.15
2023-01-19T15:23:16.401Z,54.39
2023-01-19T15:24:17.990Z,57.42
2023-01-19T15:25:16.381Z,56.98
2023-01-19T15:26:16.409Z,58.88
2023-01-19T15:27:16.364Z,56.28
2023-01-19T15:28:16.353Z,54.41
2023-01-19T15:29:16.336Z,53.69
2023-01-19T15:30:16.438Z,55.45
2023-01-19T15:31:16.391Z,57.50
2023-01-19T15:32:16.306Z,58.56
2023-01-19T15:33:16.298Z,58.77
2023-01-19T15:34:16.291Z,60.75
2023-01-19T15:35:16.278Z,59.71
2023-01-19T15:36:17.919Z,60.54
2023-01-19T15:37:16.266Z,57.53
2023-01-19T15:38:16.247Z,52.85
2023-01-19T15:39:16.241Z,54.41
2023-01-19T15:40:16.222Z,58.98
2023-01-19T15:41:16.214Z,64.28
2023-01-19T15:42:16.233Z,70.72
2023-01-19T15:43:16.197Z,62.59
2023-01-19T15:44:16.190Z,71.10
2023-01-19T15:45:16.174Z,74.84
2023-01-19T15:46:16.162Z,64.22
2023-01-19T15:47:16.159Z,59.21
2023-01-19T15:48:16.156Z,57.94
2023-01-19T15:49:16.134Z,55.92
2023-01-19T15:50:16.135Z,55.43
2023-01-19T15:51:16.116Z,50.65
2023-01-19T15:52:17.151Z,47.81
2023-01-19T15:53:16.109Z,48.00
2023-01-19T15:54:16.080Z,46.22
2023-01-19T15:55:16.088Z,47.27
2023-01-19T15:56:16.059Z,48.10
2023-01-19T15:57:16.050Z,49.13
2023-01-19T15:58:16.059Z,48.59
2023-01-19T15:59:16.026Z,46.53
2023-01-19T16:00:16.022Z,49.73
2023-01-19T16:01:16.157Z,48.49
2023-01-19T16:02:16.256Z,47.66
2023-01-19T16:03:15.987Z,47.07
2023-01-19T16:04:17.948Z,48.43
2023-01-19T16:05:15.972Z,49.31
2023-01-19T16:06:15.963Z,45.50
2023-01-19T16:07:15.962Z,45.62
2023-01-19T16:08:15.935Z,45.15
2023-01-19T16:09:15.927Z,46.00
2023-01-19T16:10:15.913Z,45.27
2023-01-19T16:11:15.905Z,46.31
2023-01-19T16:12:15.896Z,49.83
2023-01-19T16:13:15.879Z,50.04
2023-01-19T16:14:17.496Z,47.78
2023-01-19T16:15:15.860Z,53.07
2023-01-19T16:16:15.939Z,50.09
2023-01-19T16:17:15.837Z,50.42
2023-01-19T16:18:15.836Z,50.44
2023-01-19T16:19:15.833Z,50.88
2023-01-19T16:20:16.253Z,48.70
2023-01-19T16:21:15.796Z,48.91
2023-01-19T16:22:15.790Z,52.02
2023-01-19T16:23:16.083Z,54.54
2023-01-19T16:24:15.768Z,53.30
2023-01-19T16:25:15.760Z,52.80
2023-01-19T16:26:17.564Z,53.32
2023-01-19T16:27:15.742Z,56.43
2023-01-19T16:28:15.723Z,59.79
2023-01-19T16:29:15.729Z,60.41
2023-01-19T16:30:15.738Z,61.07
2023-01-19T16:31:15.796Z,62.42
2023-01-19T16:32:16.993Z,63.15
2023-01-19T16:33:15.672Z,62.03
2023-01-19T16:34:15.666Z,63.59
2023-01-19T16:35:15.659Z,65.67
2023-01-19T16:36:15.663Z,67.44
2023-01-19T16:37:15.631Z,68.62
2023-01-19T16:38:15.624Z,69.98
2023-01-19T16:39:15.620Z,63.31
2023-01-19T16:40:15.599Z,64.87
2023-01-19T16:41:15.592Z,63.83
2023-01-19T16:42:15.584Z,65.00
2023-01-19T16:43:15.571Z,62.30
2023-01-19T16:44:15.559Z,61.26
2023-01-19T16:45:15.548Z,61.15
2023-01-19T16:46:15.612Z,65.42
2023-01-19T16:47:15.527Z,65.63
2023-01-19T16:48:15.517Z,67.19
2023-01-19T16:49:15.505Z,65.56
2023-01-19T16:55:15.446Z,63.99
2023-01-19T16:56:15.435Z,64.41
2023-01-19T17:03:15.367Z,69.03
2023-01-19T17:04:15.356Z,72.99
2023-01-19T17:05:15.349Z,68.09
2023-01-19T17:06:15.361Z,64.02
2023-01-19T17:07:16.166Z,63.71
2023-01-19T17:08:15.313Z,66.45
2023-01-19T17:46:15.058Z,62.64
2023-01-19T21:58:12.305Z,86.39
